createdAt,value
2019-03-30T00:00:01.242Z,49.23
2019-03-30T00:02:35.773Z,48.30
2019-03-30T00:05:08.492Z,47.87
2019-03-30T00:07:40.746Z,49.43
2019-03-30T00:10:12.106Z,49.07
2019-03-30T00:12:45.022Z,47.07
2019-03-30T00:15:16.297Z,46.20
2019-03-30T00:17:51.424Z,47.10
2019-03-30T00:20:23.176Z,49.33
2019-03-30T00:22:54.489Z,47.00
2019-03-30T00:25:25.866Z,45.30
2019-03-30T00:27:58.181Z,51.23
2019-03-30T00:30:31.759Z,49.23
2019-03-30T00:33:03.098Z,49.27
2019-03-30T00:35:35.978Z,48.87
2019-03-30T00:38:07.225Z,47.13
2019-03-30T00:40:38.495Z,46.03
2019-03-30T00:43:12.176Z,47.43
2019-03-30T00:45:47.650Z,47.50
2019-03-30T00:48:18.929Z,46.33
2019-03-30T00:50:50.353Z,46.43
2019-03-30T00:53:21.644Z,49.23
2019-03-30T00:55:54.227Z,49.13
2019-03-30T00:58:25.732Z,47.50
2019-03-30T01:00:59.443Z,48.87
2019-03-30T01:03:32.361Z,49.80
2019-03-30T01:06:03.797Z,45.27
2019-03-30T01:08:35.033Z,46.27
2019-03-30T01:11:06.353Z,48.00
2019-03-30T01:13:37.734Z,45.27
2019-03-30T01:16:11.127Z,47.83
2019-03-30T01:18:47.566Z,49.03
2019-03-30T01:21:18.954Z,47.47
2019-03-30T01:23:50.891Z,47.20
2019-03-30T01:26:22.238Z,47.27
2019-03-30T01:28:58.207Z,46.27
2019-03-30T01:31:30.802Z,45.80
2019-03-30T01:34:02.121Z,48.03
2019-03-30T01:36:35.484Z,47.77
2019-03-30T01:39:10.494Z,45.57
2019-03-30T01:41:41.925Z,44.77
2019-03-30T01:44:13.304Z,45.70
2019-03-30T01:46:44.606Z,44.13
2019-03-30T01:49:15.851Z,43.90
2019-03-30T02:10:51.719Z,39.70
2019-03-30T02:13:23.084Z,41.90
2019-03-30T02:15:54.546Z,42.23
2019-03-30T02:18:25.929Z,43.57
2019-03-30T02:20:57.363Z,43.47
2019-03-30T02:23:34.074Z,41.50
2019-03-30T02:26:10.335Z,41.33
2019-03-30T02:28:41.690Z,40.57
2019-03-30T02:31:13.167Z,42.73
2019-03-30T02:33:44.668Z,42.80
2019-03-30T02:36:15.967Z,39.60
2019-03-30T02:38:49.670Z,41.00
2019-03-30T02:41:24.533Z,41.43
2019-03-30T02:43:56.005Z,39.60
2019-03-30T02:46:27.406Z,39.07
2019-03-30T02:48:58.817Z,40.37
2019-03-30T02:51:35.619Z,39.60
2019-03-30T02:54:15.740Z,43.57
2019-03-30T02:57:02.247Z,40.73
2019-03-30T02:59:35.049Z,41.03
2019-03-30T03:02:06.474Z,40.53
2019-03-30T03:04:37.949Z,39.70
2019-03-30T03:07:12.180Z,39.97
2019-03-30T03:09:52.099Z,38.83
2019-03-30T03:12:23.590Z,36.63
2019-03-30T03:14:55.099Z,40.20
2019-03-30T03:17:28.668Z,37.30
2019-03-30T03:20:00.486Z,40.67
2019-03-30T03:22:32.947Z,39.13
2019-03-30T03:25:04.415Z,39.37
2019-03-30T03:27:45.677Z,39.17
2019-03-30T03:30:21.533Z,37.83
2019-03-30T03:32:52.928Z,37.20
2019-03-30T03:35:34.976Z,35.70
2019-03-30T03:38:24.490Z,37.43
2019-03-30T03:40:57.258Z,36.03
2019-03-30T03:43:31.929Z,36.83
2019-03-30T03:46:03.382Z,36.93
2019-03-30T03:48:34.569Z,37.90
2019-03-30T03:51:24.514Z,39.90
2019-03-30T03:53:48.673Z,38.67
2019-03-30T03:56:22.343Z,38.83
2019-03-30T03:58:56.623Z,39.37
2019-03-30T04:01:31.772Z,40.13
2019-03-30T04:04:05.677Z,39.17
2019-03-30T04:06:44.735Z,37.67
2019-03-30T04:09:18.406Z,39.27
2019-03-30T04:11:58.502Z,39.20
2019-03-30T04:14:31.620Z,40.80
2019-03-30T04:17:03.076Z,39.00
2019-03-30T04:19:36.170Z,36.33
2019-03-30T04:22:15.593Z,33.23
2019-03-30T04:24:50.866Z,36.80
2019-03-30T04:27:24.064Z,39.43
2019-03-30T04:29:55.431Z,38.33
2019-03-30T04:32:26.872Z,38.00
2019-03-30T04:34:58.339Z,39.33
2019-03-30T04:37:39.186Z,38.47
2019-03-30T04:40:14.633Z,38.37
2019-03-30T04:42:46.006Z,38.03
2019-03-30T04:45:17.321Z,35.80
2019-03-30T04:47:48.767Z,35.40
2019-03-30T04:50:21.707Z,37.50
2019-03-30T04:52:54.049Z,35.20
2019-03-30T04:55:29.182Z,34.60
2019-03-30T04:58:01.765Z,33.27
2019-03-30T05:00:33.089Z,33.43
2019-03-30T05:03:04.504Z,34.40
2019-03-30T05:05:43.420Z,34.80
2019-03-30T05:08:26.597Z,35.67
2019-03-30T05:11:03.629Z,35.67
2019-03-30T05:13:34.941Z,36.17
2019-03-30T05:16:06.262Z,38.13
2019-03-30T05:18:37.594Z,33.03
2019-03-30T05:21:10.708Z,35.47
2019-03-30T05:23:47.737Z,36.17
2019-03-30T05:26:23.621Z,34.67
2019-03-30T05:28:55.030Z,33.90
2019-03-30T05:31:26.323Z,33.73
2019-03-30T05:34:04.772Z,33.53
2019-03-30T05:36:38.655Z,32.87
2019-03-30T05:39:12.271Z,35.43
2019-03-30T05:41:43.705Z,33.27
2019-03-30T05:44:17.246Z,35.40
2019-03-30T05:46:48.597Z,35.67
2019-03-30T05:49:32.494Z,34.97
2019-03-30T05:52:27.032Z,33.70
2019-03-30T05:55:00.484Z,33.83
2019-03-30T05:57:31.882Z,32.47
2019-03-30T06:00:03.384Z,32.10
2019-03-30T06:02:34.882Z,31.07
2019-03-30T06:05:20.307Z,29.97
2019-03-30T06:07:54.704Z,29.30
2019-03-30T06:10:26.214Z,29.60
2019-03-30T06:12:57.527Z,27.80
2019-03-30T06:15:29.774Z,29.47
2019-03-30T06:18:01.209Z,28.00
2019-03-30T06:20:37.076Z,27.80
2019-03-30T06:23:09.951Z,27.90
2019-03-30T06:25:42.282Z,26.20
2019-03-30T06:28:13.629Z,24.70
2019-03-30T06:30:45.002Z,24.80
2019-03-30T06:33:16.452Z,26.07
2019-03-30T06:36:03.855Z,26.87
2019-03-30T06:38:45.365Z,25.63
2019-03-30T06:41:18.652Z,24.90
2019-03-30T06:43:50.022Z,25.73
2019-03-30T06:46:21.332Z,24.60
2019-03-30T06:48:58.825Z,24.17
2019-03-30T06:51:43.604Z,24.77
2019-03-30T06:54:24.538Z,24.30
2019-03-30T06:56:56.076Z,24.13
2019-03-30T06:59:27.537Z,25.17
2019-03-30T07:01:58.911Z,24.13
2019-03-30T07:04:31.799Z,23.03
2019-03-30T07:07:08.196Z,24.40
2019-03-30T07:09:41.267Z,23.13
2019-03-30T07:12:13.515Z,23.93
2019-03-30T07:14:50.886Z,23.10
2019-03-30T07:17:28.662Z,24.00
2019-03-30T07:20:02.109Z,23.10
2019-03-30T07:22:40.336Z,21.97
2019-03-30T07:25:10.236Z,23.17
2019-03-30T07:27:43.990Z,23.17
2019-03-30T07:30:18.448Z,22.13
2019-03-30T07:32:49.841Z,22.13
2019-03-30T07:35:22.507Z,23.00
2019-03-30T07:37:53.824Z,21.43
2019-03-30T07:40:25.159Z,20.37
2019-03-30T07:42:56.558Z,21.03
2019-03-30T07:45:30.642Z,21.20
2019-03-30T07:48:01.955Z,20.50
2019-03-30T07:50:33.306Z,21.90
2019-03-30T07:53:04.677Z,21.93
2019-03-30T07:55:35.991Z,21.17
2019-03-30T07:58:07.463Z,20.13
2019-03-30T08:00:38.799Z,21.23
2019-03-30T08:03:10.073Z,20.57
2019-03-30T08:06:11.009Z,20.63
2019-03-30T08:08:42.354Z,19.83
2019-03-30T08:11:27.731Z,20.40
2019-03-30T08:13:58.986Z,19.70
2019-03-30T08:16:39.506Z,21.27
2019-03-30T08:19:10.895Z,20.43
2019-03-30T08:21:42.245Z,21.20
2019-03-30T08:24:13.559Z,20.27
2019-03-30T08:26:47.194Z,21.23
2019-03-30T08:29:18.568Z,21.40
2019-03-30T08:31:50.999Z,21.77
2019-03-30T08:34:22.270Z,22.77
2019-03-30T08:36:53.697Z,21.03
2019-03-30T08:39:28.994Z,20.50
2019-03-30T08:42:02.060Z,20.60
2019-03-30T08:44:33.441Z,20.40
2019-03-30T08:47:06.366Z,20.93
2019-03-30T08:49:37.759Z,21.40
2019-03-30T08:52:09.367Z,19.87
2019-03-30T08:54:43.099Z,20.70
2019-03-30T08:57:14.595Z,20.50
2019-03-30T08:59:55.981Z,21.10
2019-03-30T09:02:27.390Z,21.37
2019-03-30T09:05:01.978Z,20.70
2019-03-30T09:07:34.895Z,19.40
2019-03-30T09:10:07.887Z,20.40
2019-03-30T09:12:39.588Z,20.30
2019-03-30T09:15:11.030Z,19.83
2019-03-30T09:17:51.790Z,20.50
2019-03-30T09:20:23.113Z,20.70
2019-03-30T09:22:54.545Z,19.77
2019-03-30T09:25:25.900Z,19.30
2019-03-30T09:27:57.476Z,20.03
2019-03-30T09:30:28.981Z,21.17
2019-03-30T09:33:00.465Z,20.77
2019-03-30T09:35:31.994Z,20.17
2019-03-30T09:38:03.357Z,20.23
2019-03-30T09:40:34.719Z,19.90
2019-03-30T09:43:06.085Z,17.87
2019-03-30T09:45:37.490Z,19.53
2019-03-30T09:48:09.051Z,19.10
2019-03-30T09:50:40.503Z,20.50
2019-03-30T09:53:11.943Z,20.17
2019-03-30T09:55:43.362Z,19.47
2019-03-30T09:58:14.950Z,18.03
2019-03-30T10:00:46.445Z,20.30
2019-03-30T10:03:24.006Z,19.70
2019-03-30T10:06:01.024Z,19.97
2019-03-30T10:08:32.539Z,19.50
2019-03-30T10:11:05.092Z,20.47
2019-03-30T10:13:36.421Z,20.87
2019-03-30T10:16:09.454Z,20.83
2019-03-30T10:18:44.348Z,21.23
2019-03-30T10:21:20.209Z,19.60
2019-03-30T10:24:05.774Z,19.63
2019-03-30T10:26:43.056Z,20.03
2019-03-30T10:29:20.826Z,19.77
2019-03-30T10:31:59.875Z,20.17
2019-03-30T10:34:39.487Z,19.67
2019-03-30T10:37:15.363Z,19.83
2019-03-30T10:39:48.947Z,19.57
2019-03-30T10:42:26.929Z,18.93
2019-03-30T10:44:59.991Z,19.80
2019-03-30T10:47:31.498Z,18.47
2019-03-30T10:50:04.321Z,19.60
2019-03-30T10:52:39.609Z,19.73
2019-03-30T10:55:13.904Z,20.73
2019-03-30T10:57:45.354Z,19.27
2019-03-30T11:00:42.346Z,19.57
2019-03-30T11:03:14.864Z,20.83
2019-03-30T11:06:00.404Z,20.00
2019-03-30T11:08:32.170Z,19.63
2019-03-30T11:11:06.552Z,19.53
2019-03-30T11:13:40.469Z,20.47
2019-03-30T11:16:44.186Z,20.53
2019-03-30T11:19:44.913Z,21.37
2019-03-30T11:22:19.213Z,20.30
2019-03-30T11:24:50.710Z,20.27
2019-03-30T11:27:22.030Z,20.20
2019-03-30T11:29:53.436Z,19.20
2019-03-30T11:32:25.276Z,21.03
2019-03-30T11:34:56.698Z,19.33
2019-03-30T11:37:28.049Z,20.33
2019-03-30T11:39:59.350Z,19.77
2019-03-30T11:42:30.694Z,19.13
2019-03-30T11:45:03.614Z,20.23
2019-03-30T11:47:44.997Z,21.00
2019-03-30T11:50:17.472Z,20.90
2019-03-30T11:52:48.859Z,20.57
2019-03-30T11:55:22.010Z,18.90
2019-03-30T11:57:53.142Z,17.77
2019-03-30T12:00:24.819Z,18.60
2019-03-30T12:02:56.161Z,19.90
2019-03-30T12:05:27.437Z,19.07
2019-03-30T12:07:58.970Z,18.50
2019-03-30T12:10:30.339Z,19.60
2019-03-30T12:13:02.732Z,19.53
2019-03-30T12:15:34.122Z,18.37
2019-03-30T12:18:05.484Z,21.07
2019-03-30T12:20:36.890Z,19.90
2019-03-30T12:23:08.122Z,20.03
2019-03-30T12:25:39.447Z,19.27
2019-03-30T12:28:10.811Z,20.27
2019-03-30T12:30:42.196Z,20.17
2019-03-30T12:33:13.555Z,18.67
2019-03-30T12:35:44.939Z,19.03
2019-03-30T12:38:16.261Z,18.97
2019-03-30T12:40:48.630Z,18.30
2019-03-30T12:43:19.964Z,19.13
2019-03-30T12:45:51.339Z,18.60
2019-03-30T12:48:22.679Z,17.30
2019-03-30T12:50:54.073Z,17.20
2019-03-30T12:53:25.437Z,17.63
2019-03-30T12:55:56.721Z,18.83
2019-03-30T12:58:28.048Z,18.23
2019-03-30T13:00:59.653Z,18.67
2019-03-30T13:03:30.962Z,19.73
2019-03-30T13:06:02.271Z,20.67
2019-03-30T13:08:33.580Z,20.80
2019-03-30T13:11:05.002Z,19.47
2019-03-30T13:13:36.405Z,18.77
2019-03-30T13:16:07.803Z,19.50
2019-03-30T13:18:39.085Z,19.10
2019-03-30T13:21:10.385Z,19.93
2019-03-30T13:23:41.748Z,19.37
2019-03-30T13:26:12.987Z,18.37
2019-03-30T13:28:44.353Z,16.77
2019-03-30T13:31:15.749Z,18.50
2019-03-30T13:33:48.614Z,21.43
2019-03-30T13:36:36.830Z,20.83
2019-03-30T13:39:09.053Z,20.73
2019-03-30T13:41:40.500Z,21.03
2019-03-30T13:44:11.926Z,21.03
2019-03-30T13:46:43.384Z,20.23
2019-03-30T13:49:19.058Z,20.10
2019-03-30T13:51:51.270Z,20.17
2019-03-30T13:54:22.601Z,21.47
2019-03-30T13:56:53.948Z,22.33
2019-03-30T13:59:25.417Z,22.87
2019-03-30T14:01:59.062Z,23.50
2019-03-30T14:04:31.614Z,23.47
2019-03-30T14:07:02.951Z,24.27
2019-03-30T14:09:34.226Z,25.57
2019-03-30T14:12:06.132Z,23.83
2019-03-30T14:14:39.742Z,24.00
2019-03-30T14:17:11.166Z,24.57
2019-03-30T14:19:42.625Z,25.40
2019-03-30T14:22:14.034Z,25.50
2019-03-30T14:24:45.461Z,23.63
2019-03-30T14:27:18.524Z,22.53
2019-03-30T14:29:49.977Z,26.03
2019-03-30T14:32:21.329Z,25.57
2019-03-30T14:34:52.698Z,25.70
2019-03-30T14:37:24.067Z,26.83
2019-03-30T14:39:57.133Z,25.93
2019-03-30T14:42:29.704Z,28.97
2019-03-30T14:45:01.114Z,26.90
2019-03-30T14:47:35.000Z,26.57
2019-03-30T14:50:10.143Z,29.00
2019-03-30T14:52:43.779Z,27.97
2019-03-30T14:55:15.395Z,27.27
2019-03-30T14:57:46.921Z,25.80
2019-03-30T15:00:18.807Z,27.67
2019-03-30T15:02:54.439Z,28.50
2019-03-30T15:05:26.139Z,27.70
2019-03-30T15:07:57.592Z,28.07
2019-03-30T15:10:39.075Z,28.07
2019-03-30T15:13:10.405Z,30.17
2019-03-30T15:15:41.897Z,30.47
2019-03-30T15:18:13.333Z,31.33
2019-03-30T15:20:45.098Z,31.27
2019-03-30T15:23:16.893Z,29.23
2019-03-30T15:25:48.274Z,33.50
2019-03-30T15:28:19.645Z,31.33
2019-03-30T15:30:51.098Z,32.27
2019-03-30T15:33:22.462Z,30.53
2019-03-30T15:35:53.793Z,31.23
2019-03-30T15:38:27.107Z,28.87
2019-03-30T15:41:01.403Z,30.07
2019-03-30T15:43:38.408Z,28.90
2019-03-30T15:46:07.429Z,28.93
2019-03-30T15:48:38.743Z,26.83
2019-03-30T15:51:10.106Z,27.27
2019-03-30T15:53:43.773Z,28.07
2019-03-30T15:56:15.261Z,26.70
2019-03-30T15:58:48.210Z,28.40
2019-03-30T16:01:19.525Z,28.73
2019-03-30T16:03:50.825Z,28.40
2019-03-30T16:06:22.166Z,29.00
2019-03-30T16:08:53.490Z,28.53
2019-03-30T16:11:24.897Z,30.60
2019-03-30T16:13:56.282Z,29.83
2019-03-30T16:16:27.682Z,30.63
2019-03-30T16:19:45.724Z,31.90
2019-03-30T16:22:17.622Z,32.27
2019-03-30T16:24:49.025Z,29.30
2019-03-30T16:27:28.715Z,30.57
2019-03-30T16:29:58.435Z,28.00
2019-03-30T16:32:28.718Z,28.70
2019-03-30T16:35:00.111Z,26.83
2019-03-30T16:37:33.391Z,27.77
2019-03-30T16:40:05.341Z,26.83
2019-03-30T16:42:39.429Z,24.97
2019-03-30T16:45:10.783Z,24.07
2019-03-30T16:47:42.110Z,23.90
2019-03-30T16:50:13.734Z,26.60
2019-03-30T16:52:45.105Z,28.83
2019-03-30T16:55:16.466Z,27.47
2019-03-30T16:57:47.818Z,27.30
2019-03-30T17:00:19.424Z,26.17
2019-03-30T17:02:50.813Z,27.90
2019-03-30T17:05:22.166Z,28.03
2019-03-30T17:07:53.404Z,28.63
2019-03-30T17:10:25.170Z,32.77
2019-03-30T17:12:56.580Z,32.40
2019-03-30T17:15:28.039Z,32.70
2019-03-30T17:17:59.494Z,32.17
2019-03-30T17:20:30.873Z,31.83
2019-03-30T17:23:02.355Z,32.53
2019-03-30T17:25:33.756Z,31.33
2019-03-30T17:28:07.064Z,32.90
2019-03-30T17:30:39.630Z,32.33
2019-03-30T17:33:11.058Z,31.40
2019-03-30T17:35:42.535Z,31.87
2019-03-30T17:38:13.869Z,30.77
2019-03-30T17:40:45.219Z,29.50
2019-03-30T17:43:16.458Z,29.37
2019-03-30T17:45:49.402Z,29.20
2019-03-30T17:48:21.602Z,26.93
2019-03-30T17:50:57.992Z,28.37
2019-03-30T17:53:27.662Z,26.87
2019-03-30T17:56:01.914Z,26.97
2019-03-30T17:58:32.122Z,27.60
2019-03-30T18:01:03.468Z,26.00
2019-03-30T18:03:34.764Z,26.90
2019-03-30T18:06:06.305Z,25.70
2019-03-30T18:08:37.638Z,26.40
2019-03-30T18:11:08.943Z,25.40
2019-03-30T18:13:41.386Z,25.43
2019-03-30T18:16:12.766Z,25.00
2019-03-30T18:18:44.171Z,25.37
2019-03-30T18:21:18.272Z,25.83
2019-03-30T18:23:49.558Z,24.90
2019-03-30T18:26:20.926Z,25.07
2019-03-30T18:28:54.382Z,25.17
2019-03-30T18:31:25.351Z,25.87
2019-03-30T18:33:58.464Z,25.47
2019-03-30T18:36:31.131Z,25.47
2019-03-30T18:39:09.688Z,26.10
2019-03-30T18:41:38.507Z,25.33
2019-03-30T18:44:10.006Z,23.07
2019-03-30T18:46:42.501Z,25.43
2019-03-30T18:49:13.781Z,25.33
2019-03-30T18:51:46.544Z,24.17
2019-03-30T18:54:18.245Z,23.27
2019-03-30T18:56:49.686Z,24.47
2019-03-30T18:59:21.018Z,25.17
2019-03-30T19:01:52.476Z,24.73
2019-03-30T19:04:23.830Z,25.30
2019-03-30T19:06:55.300Z,27.07
2019-03-30T19:09:26.755Z,26.00
2019-03-30T19:11:59.695Z,25.30
2019-03-30T19:14:31.059Z,25.30
2019-03-30T19:17:02.415Z,26.90
2019-03-30T19:19:37.729Z,25.23
2019-03-30T19:22:09.471Z,24.93
2019-03-30T19:24:40.860Z,25.00
2019-03-30T19:27:12.344Z,24.73
2019-03-30T19:29:45.240Z,24.87
2019-03-30T19:32:19.338Z,25.67
2019-03-30T19:34:50.791Z,26.70
2019-03-30T19:37:24.940Z,26.17
2019-03-30T19:39:56.414Z,25.77
2019-03-30T19:42:27.738Z,26.60
2019-03-30T19:44:59.789Z,25.03
2019-03-30T19:47:33.510Z,26.13
2019-03-30T19:50:07.690Z,26.33
2019-03-30T19:52:43.879Z,25.50
2019-03-30T19:55:17.993Z,29.00
2019-03-30T19:57:56.494Z,25.70
2019-03-30T20:00:31.033Z,27.63
2019-03-30T20:03:05.281Z,26.97
2019-03-30T20:05:58.025Z,26.00
2019-03-30T20:08:36.308Z,29.13
2019-03-30T20:11:09.844Z,29.60
2019-03-30T20:13:50.712Z,30.00
2019-03-30T20:16:28.361Z,26.97
2019-03-30T20:19:11.564Z,29.87
2019-03-30T20:21:34.743Z,30.70
2019-03-30T20:24:10.567Z,30.90
2019-03-30T20:26:43.320Z,30.90
2019-03-30T20:29:25.505Z,31.57
2019-03-30T20:31:57.183Z,31.37
2019-03-30T20:34:44.253Z,33.83
2019-03-30T20:37:18.600Z,34.53
2019-03-30T20:39:51.603Z,35.40
2019-03-30T20:42:22.985Z,36.90
2019-03-30T20:45:02.398Z,37.50
2019-03-30T20:47:38.399Z,35.70
2019-03-30T20:50:19.382Z,36.13
2019-03-30T20:52:51.979Z,36.53
2019-03-30T20:55:23.336Z,36.97
2019-03-30T20:57:56.384Z,35.63
2019-03-30T21:00:28.140Z,35.17
2019-03-30T21:02:59.596Z,34.93
2019-03-30T21:05:31.230Z,35.87
2019-03-30T21:08:02.645Z,37.03
2019-03-30T21:10:33.982Z,36.57
2019-03-30T21:13:05.602Z,36.87
2019-03-30T21:15:36.970Z,38.40
2019-03-30T21:18:08.222Z,36.97
2019-03-30T21:20:40.519Z,38.07
2019-03-30T21:23:11.839Z,37.07
2019-03-30T21:25:45.014Z,38.23
2019-03-30T21:28:16.466Z,37.23
2019-03-30T21:30:48.982Z,37.90
2019-03-30T21:33:20.392Z,37.80
2019-03-30T21:35:53.359Z,38.30
2019-03-30T21:38:24.732Z,39.37
2019-03-30T21:40:58.977Z,39.27
2019-03-30T21:43:30.348Z,39.53
2019-03-30T21:46:01.803Z,39.83
2019-03-30T21:48:36.082Z,37.13
2019-03-30T21:51:07.394Z,39.37
2019-03-30T21:53:38.788Z,41.33
2019-03-30T21:56:10.101Z,40.50
2019-03-30T21:58:44.186Z,41.53
2019-03-30T22:01:15.519Z,41.33
2019-03-30T22:03:46.903Z,41.27
2019-03-30T22:06:19.174Z,43.07
2019-03-30T22:08:52.799Z,40.90
2019-03-30T22:11:24.164Z,39.53
2019-03-30T22:13:56.629Z,41.90
2019-03-30T22:16:27.901Z,41.50
2019-03-30T22:18:59.378Z,43.13
2019-03-30T22:21:33.752Z,41.33
2019-03-30T22:24:05.091Z,38.80
2019-03-30T22:26:36.382Z,41.00
2019-03-30T22:29:07.746Z,40.90
2019-03-30T22:31:39.111Z,40.73
2019-03-30T22:34:10.529Z,40.97
2019-03-30T22:36:42.830Z,41.93
2019-03-30T22:39:14.265Z,42.40
2019-03-30T22:41:45.657Z,40.37
2019-03-30T22:44:16.975Z,42.57
2019-03-30T22:46:48.376Z,41.30
2019-03-30T22:49:19.689Z,42.07
2019-03-30T22:51:51.059Z,41.90
2019-03-30T22:54:22.333Z,44.23
2019-03-30T22:56:53.643Z,42.87
2019-03-30T22:59:26.159Z,45.20
2019-03-30T23:01:57.466Z,43.70
2019-03-30T23:04:28.710Z,45.13
2019-03-30T23:07:00.070Z,43.43
2019-03-30T23:09:32.577Z,47.17
2019-03-30T23:12:04.329Z,45.23
2019-03-30T23:14:35.754Z,47.77
2019-03-30T23:17:07.223Z,47.20
2019-03-30T23:19:38.577Z,45.80
2019-03-30T23:22:10.015Z,48.30
2019-03-30T23:24:42.250Z,47.43
2019-03-30T23:27:13.665Z,48.60
2019-03-30T23:29:44.985Z,51.47
2019-03-30T23:32:16.322Z,50.60
2019-03-30T23:34:48.676Z,55.43
2019-03-30T23:37:19.953Z,57.80
2019-03-30T23:39:51.290Z,56.77
2019-03-30T23:42:22.621Z,57.73
2019-03-30T23:44:55.102Z,60.80
2019-03-30T23:47:26.428Z,58.67
2019-03-30T23:49:57.803Z,60.23
2019-03-30T23:52:29.158Z,59.47
2019-03-30T23:55:00.415Z,59.93
2019-03-30T23:57:31.878Z,60.70
